sensor_id;sensor_type;location;lat;lon;timestamp;pressure;altitude;pressure_sealevel;temperature;humidity
51439;BME280;38816;51.142;-0.974;2023-06-14T00:01:49;100099.03;;;15.65;72.04
51439;BME280;38816;51.142;-0.974;2023-06-14T00:04:14;100099.03;;;15.60;73.10
51439;BME280;38816;51.142;-0.974;2023-06-14T00:06:44;100098.22;;;15.55;72.91
51439;BME280;38816;51.142;-0.974;2023-06-14T00:09:13;100092.16;;;15.53;72.80
51439;BME280;38816;51.142;-0.974;2023-06-14T00:11:40;100095.66;;;15.49;72.85
51439;BME280;38816;51.142;-0.974;2023-06-14T00:14:06;100087.88;;;15.51;71.83
51439;BME280;38816;51.142;-0.974;2023-06-14T00:16:31;100100.81;;;15.51;70.32
51439;BME280;38816;51.142;-0.974;2023-06-14T00:18:58;100099.09;;;15.48;69.71
51439;BME280;38816;51.142;-0.974;2023-06-14T00:21:24;100092.22;;;15.45;69.28
51439;BME280;38816;51.142;-0.974;2023-06-14T00:23:50;100093.13;;;15.41;68.46
51439;BME280;38816;51.142;-0.974;2023-06-14T00:26:15;100087.94;;;15.35;68.18
51439;BME280;38816;51.142;-0.974;2023-06-14T00:28:40;100093.16;;;15.32;68.74
51439;BME280;38816;51.142;-0.974;2023-06-14T00:31:06;100085.44;;;15.20;68.75
51439;BME280;38816;51.142;-0.974;2023-06-14T00:33:31;100089.78;;;15.18;68.96
51439;BME280;38816;51.142;-0.974;2023-06-14T00:35:57;100095.84;;;15.12;69.30
51439;BME280;38816;51.142;-0.974;2023-06-14T00:38:22;100095.00;;;15.06;69.46
51439;BME280;38816;51.142;-0.974;2023-06-14T00:40:47;100086.41;;;14.94;69.74
51439;BME280;38816;51.142;-0.974;2023-06-14T00:43:13;100089.03;;;14.91;70.08
51439;BME280;38816;51.142;-0.974;2023-06-14T00:45:38;100091.66;;;14.82;70.58
51439;BME280;38816;51.142;-0.974;2023-06-14T00:48:05;100089.91;;;14.81;69.80
51439;BME280;38816;51.142;-0.974;2023-06-14T00:50:32;100086.50;;;14.73;69.12
51439;BME280;38816;51.142;-0.974;2023-06-14T00:52:59;100086.47;;;14.76;68.41
51439;BME280;38816;51.142;-0.974;2023-06-14T00:55:25;100093.41;;;14.71;67.06
51439;BME280;38816;51.142;-0.974;2023-06-14T00:57:50;100098.59;;;14.68;66.44
51439;BME280;38816;51.142;-0.974;2023-06-14T01:00:16;100091.69;;;14.65;65.95
51439;BME280;38816;51.142;-0.974;2023-06-14T01:02:42;100095.16;;;14.60;66.78
51439;BME280;38816;51.142;-0.974;2023-06-14T01:05:08;100088.28;;;14.50;66.98
51439;BME280;38816;51.142;-0.974;2023-06-14T01:13:02;100084.84;;;14.29;68.69
51439;BME280;38816;51.142;-0.974;2023-06-14T01:15:30;100094.31;;;14.27;68.65
51439;BME280;38816;51.142;-0.974;2023-06-14T01:17:56;100097.78;;;14.23;67.73
51439;BME280;38816;51.142;-0.974;2023-06-14T01:20:29;100083.13;;;14.14;67.32
51439;BME280;38816;51.142;-0.974;2023-06-14T01:22:55;100096.91;;;14.16;66.96
51439;BME280;38816;51.142;-0.974;2023-06-14T01:25:22;100096.91;;;14.16;65.75
51439;BME280;38816;51.142;-0.974;2023-06-14T01:27:50;100090.88;;;14.13;63.42
51439;BME280;38816;51.142;-0.974;2023-06-14T01:30:17;100075.38;;;14.04;63.62
51439;BME280;38816;51.142;-0.974;2023-06-14T01:32:42;100090.03;;;14.02;63.00
51439;BME280;38816;51.142;-0.974;2023-06-14T01:35:09;100104.69;;;14.03;62.67
51439;BME280;38816;51.142;-0.974;2023-06-14T01:37:35;100090.88;;;13.99;63.67
51439;BME280;38816;51.142;-0.974;2023-06-14T01:40:03;100096.91;;;13.89;68.42
51439;BME280;38816;51.142;-0.974;2023-06-14T01:42:33;100090.84;;;13.73;73.59
51439;BME280;38816;51.142;-0.974;2023-06-14T01:45:02;100102.03;;;13.63;75.86
51439;BME280;38816;51.142;-0.974;2023-06-14T01:47:28;100108.09;;;13.56;73.67
51439;BME280;38816;51.142;-0.974;2023-06-14T01:49:53;100107.19;;;13.51;77.09
51439;BME280;38816;51.142;-0.974;2023-06-14T01:52:19;100103.72;;;13.36;80.52
51439;BME280;38816;51.142;-0.974;2023-06-14T01:54:45;100104.53;;;13.23;83.22
51439;BME280;38816;51.142;-0.974;2023-06-14T01:57:11;100108.78;;;13.18;77.23
51439;BME280;38816;51.142;-0.974;2023-06-14T01:59:37;100096.75;;;13.22;66.27
51439;BME280;38816;51.142;-0.974;2023-06-14T02:02:02;100098.56;;;13.33;57.26
51439;BME280;38816;51.142;-0.974;2023-06-14T02:04:28;100095.97;;;13.46;54.90
51439;BME280;38816;51.142;-0.974;2023-06-14T02:06:54;100096.84;;;13.51;53.70
51439;BME280;38816;51.142;-0.974;2023-06-14T02:09:19;100090.84;;;13.56;52.89
51439;BME280;38816;51.142;-0.974;2023-06-14T02:11:44;100076.19;;;13.45;52.07
51439;BME280;38816;51.142;-0.974;2023-06-14T02:14:10;100106.34;;;13.55;52.25
51439;BME280;38816;51.142;-0.974;2023-06-14T02:16:37;100099.44;;;13.49;52.28
51439;BME280;38816;51.142;-0.974;2023-06-14T02:19:04;100094.28;;;13.43;53.38
51439;BME280;38816;51.142;-0.974;2023-06-14T02:21:30;100096.81;;;13.35;54.25
51439;BME280;38816;51.142;-0.974;2023-06-14T02:23:56;100089.91;;;13.25;54.73
51439;BME280;38816;51.142;-0.974;2023-06-14T02:26:21;100091.59;;;13.20;54.59
51439;BME280;38816;51.142;-0.974;2023-06-14T02:28:48;100095.88;;;13.18;55.06
51439;BME280;38816;51.142;-0.974;2023-06-14T02:31:13;100101.03;;;13.13;55.96
51439;BME280;38816;51.142;-0.974;2023-06-14T02:33:39;100094.09;;;13.05;57.82
51439;BME280;38816;51.142;-0.974;2023-06-14T02:36:05;100097.56;;;13.02;59.42
51439;BME280;38816;51.142;-0.974;2023-06-14T02:38:31;100086.31;;;12.89;60.30
51439;BME280;38816;51.142;-0.974;2023-06-14T02:40:57;100093.22;;;12.93;60.84
51439;BME280;38816;51.142;-0.974;2023-06-14T02:43:22;100094.94;;;12.95;60.50
51439;BME280;38816;51.142;-0.974;2023-06-14T02:45:47;100101.81;;;12.92;60.73
51439;BME280;38816;51.142;-0.974;2023-06-14T02:48:13;100091.44;;;12.83;61.06
51439;BME280;38816;51.142;-0.974;2023-06-14T02:50:38;100093.97;;;12.79;62.37
51439;BME280;38816;51.142;-0.974;2023-06-14T02:53:05;100088.78;;;12.73;63.99
51439;BME280;38816;51.142;-0.974;2023-06-14T02:55:31;100091.38;;;12.71;64.62
51439;BME280;38816;51.142;-0.974;2023-06-14T02:57:59;100089.63;;;12.67;64.78
51439;BME280;38816;51.142;-0.974;2023-06-14T03:00:25;100099.06;;;12.62;65.07
51439;BME280;38816;51.142;-0.974;2023-06-14T03:02:51;100097.28;;;12.55;65.52
51439;BME280;38816;51.142;-0.974;2023-06-14T03:05:17;100091.25;;;12.50;66.02
51439;BME280;38816;51.142;-0.974;2023-06-14T03:07:46;100093.81;;;12.44;66.28
51439;BME280;38816;51.142;-0.974;2023-06-14T03:10:12;100100.69;;;12.45;66.68
51439;BME280;38816;51.142;-0.974;2023-06-14T03:12:39;100095.53;;;12.45;66.93
51439;BME280;38816;51.142;-0.974;2023-06-14T03:15:05;100085.97;;;12.31;67.25
51439;BME280;38816;51.142;-0.974;2023-06-14T03:17:30;100085.97;;;12.30;67.83
51439;BME280;38816;51.142;-0.974;2023-06-14T03:19:59;100099.69;;;12.29;68.18
51439;BME280;38816;51.142;-0.974;2023-06-14T03:22:25;100096.22;;;12.22;68.70
51439;BME280;38816;51.142;-0.974;2023-06-14T03:24:51;100084.06;;;12.06;69.38
51439;BME280;38816;51.142;-0.974;2023-06-14T03:27:17;100096.13;;;12.07;70.24
51439;BME280;38816;51.142;-0.974;2023-06-14T03:29:43;100100.34;;;12.02;70.85
51439;BME280;38816;51.142;-0.974;2023-06-14T03:32:09;100105.47;;;11.96;70.77
51439;BME280;38816;51.142;-0.974;2023-06-14T03:34:34;100101.97;;;11.89;71.28
51439;BME280;38816;51.142;-0.974;2023-06-14T03:37:00;100107.03;;;11.81;71.63
51439;BME280;38816;51.142;-0.974;2023-06-14T03:39:26;100104.41;;;11.75;71.84
51439;BME280;38816;51.142;-0.974;2023-06-14T03:41:51;100103.47;;;11.69;71.64
51439;BME280;38816;51.142;-0.974;2023-06-14T03:44:17;100100.78;;;11.58;72.05
51439;BME280;38816;51.142;-0.974;2023-06-14T03:46:44;100109.44;;;11.63;72.29
51439;BME280;38816;51.142;-0.974;2023-06-14T03:49:13;100098.09;;;11.47;72.73
51439;BME280;38816;51.142;-0.974;2023-06-14T03:51:39;100105.81;;;11.46;73.45
51439;BME280;38816;51.142;-0.974;2023-06-14T03:54:05;100114.38;;;11.46;73.81
51439;BME280;38816;51.142;-0.974;2023-06-14T03:56:31;100111.75;;;11.41;74.51
51439;BME280;38816;51.142;-0.974;2023-06-14T03:58:57;100115.16;;;11.37;75.15
51439;BME280;38816;51.142;-0.974;2023-06-14T04:01:37;100103.94;;;11.32;75.86
51439;BME280;38816;51.142;-0.974;2023-06-14T04:04:03;100115.16;;;11.36;76.56
51439;BME280;38816;51.142;-0.974;2023-06-14T04:06:28;100112.56;;;11.37;76.89
51439;BME280;38816;51.142;-0.974;2023-06-14T04:08:58;100114.28;;;11.35;76.98
51439;BME280;38816;51.142;-0.974;2023-06-14T04:11:27;100097.84;;;11.24;77.81
51439;BME280;38816;51.142;-0.974;2023-06-14T04:13:52;100115.03;;;11.28;78.66
51439;BME280;38816;51.142;-0.974;2023-06-14T04:16:19;100108.94;;;11.17;79.61
51439;BME280;38816;51.142;-0.974;2023-06-14T04:18:44;100112.38;;;11.19;79.68
51439;BME280;38816;51.142;-0.974;2023-06-14T04:21:11;100115.81;;;11.21;79.89
51439;BME280;38816;51.142;-0.974;2023-06-14T04:23:37;100115.91;;;11.27;80.04
51439;BME280;38816;51.142;-0.974;2023-06-14T04:26:03;100112.53;;;11.31;80.33
51439;BME280;38816;51.142;-0.974;2023-06-14T04:28:28;100111.63;;;11.28;80.95
51439;BME280;38816;51.142;-0.974;2023-06-14T04:30:54;100118.47;;;11.29;81.90
51439;BME280;38816;51.142;-0.974;2023-06-14T04:33:19;100119.44;;;11.37;82.79
51439;BME280;38816;51.142;-0.974;2023-06-14T04:35:45;100119.44;;;11.35;83.59
51439;BME280;38816;51.142;-0.974;2023-06-14T04:38:12;100122.00;;;11.35;84.19
51439;BME280;38816;51.142;-0.974;2023-06-14T04:40:38;100121.97;;;11.34;85.62
51439;BME280;38816;51.142;-0.974;2023-06-14T04:43:08;100124.56;;;11.35;87.19
51439;BME280;38816;51.142;-0.974;2023-06-14T04:45:34;100109.94;;;11.31;88.01
51439;BME280;38816;51.142;-0.974;2023-06-14T04:47:59;100123.72;;;11.35;88.93
51439;BME280;38816;51.142;-0.974;2023-06-14T04:50:25;100122.06;;;11.41;89.68
51439;BME280;38816;51.142;-0.974;2023-06-14T04:52:53;100118.69;;;11.47;90.24
51439;BME280;38816;51.142;-0.974;2023-06-14T04:55:18;100116.09;;;11.44;90.86
51439;BME280;38816;51.142;-0.974;2023-06-14T04:57:45;100124.72;;;11.51;91.56
51439;BME280;38816;51.142;-0.974;2023-06-14T05:00:10;100111.81;;;11.46;91.53
51439;BME280;38816;51.142;-0.974;2023-06-14T05:02:37;100121.38;;;11.58;91.82
51439;BME280;38816;51.142;-0.974;2023-06-14T05:05:03;100129.97;;;11.61;91.20
51439;BME280;38816;51.142;-0.974;2023-06-14T05:07:34;100124.81;;;11.60;91.38
51439;BME280;38816;51.142;-0.974;2023-06-14T05:09:59;100126.63;;;11.67;90.94
51439;BME280;38816;51.142;-0.974;2023-06-14T05:12:25;100131.78;;;11.69;90.52
51439;BME280;38816;51.142;-0.974;2023-06-14T05:14:50;100134.38;;;11.70;89.43
51439;BME280;38816;51.142;-0.974;2023-06-14T05:17:15;100133.53;;;11.71;88.50
51439;BME280;38816;51.142;-0.974;2023-06-14T05:19:42;100126.69;;;11.73;87.91
51439;BME280;38816;51.142;-0.974;2023-06-14T05:22:07;100124.88;;;11.66;88.37
51439;BME280;38816;51.142;-0.974;2023-06-14T05:24:33;100117.16;;;11.64;88.89
51439;BME280;38816;51.142;-0.974;2023-06-14T05:26:58;100124.97;;;11.74;88.79
51439;BME280;38816;51.142;-0.974;2023-06-14T05:29:24;100121.56;;;11.76;88.72
51439;BME280;38816;51.142;-0.974;2023-06-14T05:31:50;100125.13;;;11.84;89.23
51439;BME280;38816;51.142;-0.974;2023-06-14T05:34:15;100115.69;;;11.88;89.72
51439;BME280;38816;51.142;-0.974;2023-06-14T05:36:41;100114.91;;;11.97;90.55
51439;BME280;38816;51.142;-0.974;2023-06-14T05:39:06;100113.28;;;12.08;89.95
51439;BME280;38816;51.142;-0.974;2023-06-14T05:41:31;100108.16;;;12.11;89.83
51439;BME280;38816;51.142;-0.974;2023-06-14T05:43:57;100113.38;;;12.20;90.87
51439;BME280;38816;51.142;-0.974;2023-06-14T05:46:23;100117.81;;;12.35;91.08
51439;BME280;38816;51.142;-0.974;2023-06-14T05:48:53;100118.69;;;12.38;91.56
51439;BME280;38816;51.142;-0.974;2023-06-14T05:51:19;100124.78;;;12.51;92.22
51439;BME280;38816;51.142;-0.974;2023-06-14T05:53:48;100134.31;;;12.64;93.16
51439;BME280;38816;51.142;-0.974;2023-06-14T05:56:14;100126.66;;;12.77;93.81
51439;BME280;38816;51.142;-0.974;2023-06-14T05:58:40;100120.69;;;12.84;93.43
51439;BME280;38816;51.142;-0.974;2023-06-14T06:01:09;100127.59;;;12.94;93.75
51439;BME280;38816;51.142;-0.974;2023-06-14T06:03:34;100127.66;;;13.03;93.45
51439;BME280;38816;51.142;-0.974;2023-06-14T06:06:00;100132.84;;;13.08;92.82
51439;BME280;38816;51.142;-0.974;2023-06-14T06:08:26;100134.56;;;13.12;92.59
51439;BME280;38816;51.142;-0.974;2023-06-14T06:10:52;100125.97;;;13.13;93.04
51439;BME280;38816;51.142;-0.974;2023-06-14T06:13:17;100137.22;;;13.23;93.30
51439;BME280;38816;51.142;-0.974;2023-06-14T06:15:43;100132.94;;;13.26;91.97
51439;BME280;38816;51.142;-0.974;2023-06-14T06:18:08;100144.13;;;13.31;92.04
51439;BME280;38816;51.142;-0.974;2023-06-14T06:20:34;100134.69;;;13.30;91.76
51439;BME280;38816;51.142;-0.974;2023-06-14T06:22:59;100124.34;;;13.36;92.80
51439;BME280;38816;51.142;-0.974;2023-06-14T06:25:26;100138.19;;;13.52;92.79
51439;BME280;38816;51.142;-0.974;2023-06-14T06:27:57;100140.81;;;13.64;91.41
51439;BME280;38816;51.142;-0.974;2023-06-14T06:30:23;100144.28;;;13.70;91.27
51439;BME280;38816;51.142;-0.974;2023-06-14T06:32:49;100151.16;;;13.80;91.42
51439;BME280;38816;51.142;-0.974;2023-06-14T06:35:15;100148.59;;;13.87;91.27
51439;BME280;38816;51.142;-0.974;2023-06-14T06:37:42;100135.66;;;13.90;90.83
51439;BME280;38816;51.142;-0.974;2023-06-14T06:40:07;100137.41;;;13.98;91.63
51439;BME280;38816;51.142;-0.974;2023-06-14T06:42:34;100136.53;;;14.09;91.73
51439;BME280;38816;51.142;-0.974;2023-06-14T06:44:59;100136.56;;;14.20;91.55
51439;BME280;38816;51.142;-0.974;2023-06-14T06:47:24;100150.34;;;14.33;91.08
51439;BME280;38816;51.142;-0.974;2023-06-14T06:49:50;100149.47;;;14.35;90.42
51439;BME280;38816;51.142;-0.974;2023-06-14T06:52:15;100148.63;;;14.46;90.21
51439;BME280;38816;51.142;-0.974;2023-06-14T06:54:41;100148.63;;;14.49;90.43
51439;BME280;38816;51.142;-0.974;2023-06-14T06:57:06;100151.22;;;14.55;90.69
51439;BME280;38816;51.142;-0.974;2023-06-14T06:59:33;100155.53;;;14.68;90.46
51439;BME280;38816;51.142;-0.974;2023-06-14T07:01:58;100152.94;;;14.73;89.96
51439;BME280;38816;51.142;-0.974;2023-06-14T07:04:24;100155.50;;;14.76;89.29
51439;BME280;38816;51.142;-0.974;2023-06-14T07:06:49;100166.69;;;14.88;89.63
51439;BME280;38816;51.142;-0.974;2023-06-14T07:09:15;100153.72;;;14.94;89.48
51439;BME280;38816;51.142;-0.974;2023-06-14T07:11:44;100154.56;;;14.98;88.56
51439;BME280;38816;51.142;-0.974;2023-06-14T07:14:10;100158.03;;;15.00;89.08
51439;BME280;38816;51.142;-0.974;2023-06-14T07:16:37;100151.94;;;15.07;89.13
51439;BME280;38816;51.142;-0.974;2023-06-14T07:19:03;100164.00;;;15.19;88.61
51439;BME280;38816;51.142;-0.974;2023-06-14T07:21:28;100163.13;;;15.20;88.55
51439;BME280;38816;51.142;-0.974;2023-06-14T07:23:54;100151.06;;;15.22;88.64
51439;BME280;38816;51.142;-0.974;2023-06-14T07:26:20;100164.81;;;15.33;87.62
51439;BME280;38816;51.142;-0.974;2023-06-14T07:28:46;100173.41;;;15.35;87.32
51439;BME280;38816;51.142;-0.974;2023-06-14T07:31:13;100169.09;;;15.40;88.40
51439;BME280;38816;51.142;-0.974;2023-06-14T07:33:40;100158.72;;;15.47;88.63
51439;BME280;38816;51.142;-0.974;2023-06-14T07:36:05;100163.81;;;15.57;88.09
51439;BME280;38816;51.142;-0.974;2023-06-14T07:38:31;100173.28;;;15.74;87.73
51439;BME280;38816;51.142;-0.974;2023-06-14T07:40:56;100177.56;;;15.79;88.20
51439;BME280;38816;51.142;-0.974;2023-06-14T07:43:21;100171.47;;;15.86;87.14
51439;BME280;38816;51.142;-0.974;2023-06-14T07:45:47;100170.53;;;15.97;86.80
51439;BME280;38816;51.142;-0.974;2023-06-14T07:48:12;100170.47;;;16.06;86.67
51439;BME280;38816;51.142;-0.974;2023-06-14T07:50:37;100178.19;;;16.18;87.08
51439;BME280;38816;51.142;-0.974;2023-06-14T07:53:03;100163.41;;;16.26;87.12
51439;BME280;38816;51.142;-0.974;2023-06-14T07:55:28;100163.25;;;16.44;86.37
51439;BME280;38816;51.142;-0.974;2023-06-14T07:57:54;100171.81;;;16.57;86.03
51439;BME280;38816;51.142;-0.974;2023-06-14T08:00:20;100171.69;;;16.73;86.14
51439;BME280;38816;51.142;-0.974;2023-06-14T08:02:46;100174.13;;;16.86;85.61
51439;BME280;38816;51.142;-0.974;2023-06-14T08:05:11;100177.47;;;16.96;85.47
51439;BME280;38816;51.142;-0.974;2023-06-14T08:07:38;100158.38;;;17.02;85.64
51439;BME280;38816;51.142;-0.974;2023-06-14T08:10:05;100165.09;;;17.19;85.05
51439;BME280;38816;51.142;-0.974;2023-06-14T08:12:31;100165.03;;;17.26;84.22
51439;BME280;38816;51.142;-0.974;2023-06-14T08:14:57;100171.72;;;17.45;84.45
51439;BME280;38816;51.142;-0.974;2023-06-14T08:17:22;100171.50;;;17.60;83.49
51439;BME280;38816;51.142;-0.974;2023-06-14T08:19:47;100161.00;;;17.68;82.64
51439;BME280;38816;51.142;-0.974;2023-06-14T08:22:13;100170.38;;;17.81;82.68
51439;BME280;38816;51.142;-0.974;2023-06-14T08:24:38;100169.38;;;17.93;82.89
51439;BME280;38816;51.142;-0.974;2023-06-14T08:27:05;100174.31;;;18.08;81.98
51439;BME280;38816;51.142;-0.974;2023-06-14T08:29:31;100175.88;;;18.18;82.36
51439;BME280;38816;51.142;-0.974;2023-06-14T08:31:56;100177.47;;;18.29;82.07
51439;BME280;38816;51.142;-0.974;2023-06-14T08:34:22;100179.78;;;18.47;81.65
51439;BME280;38816;51.142;-0.974;2023-06-14T08:36:50;100171.69;;;18.62;81.31
51439;BME280;38816;51.142;-0.974;2023-06-14T08:39:15;100171.53;;;18.73;80.35
51439;BME280;38816;51.142;-0.974;2023-06-14T08:41:42;100158.41;;;18.79;80.33
51439;BME280;38816;51.142;-0.974;2023-06-14T08:44:08;100175.34;;;19.02;79.47
51439;BME280;38816;51.142;-0.974;2023-06-14T08:46:33;100172.50;;;19.14;78.19
51439;BME280;38816;51.142;-0.974;2023-06-14T08:49:01;100175.72;;;19.27;78.04
51439;BME280;38816;51.142;-0.974;2023-06-14T08:51:27;100183.25;;;19.40;77.74
51439;BME280;38816;51.142;-0.974;2023-06-14T08:53:59;100176.97;;;19.51;77.59
51439;BME280;38816;51.142;-0.974;2023-06-14T08:56:27;100181.97;;;19.61;76.93
51439;BME280;38816;51.142;-0.974;2023-06-14T08:58:55;100171.38;;;19.69;75.74
51439;BME280;38816;51.142;-0.974;2023-06-14T09:01:21;100182.31;;;19.86;74.97
51439;BME280;38816;51.142;-0.974;2023-06-14T09:03:49;100181.97;;;20.00;75.42
51439;BME280;38816;51.142;-0.974;2023-06-14T09:06:14;100176.50;;;20.11;74.00
51439;BME280;38816;51.142;-0.974;2023-06-14T09:08:42;100176.44;;;20.14;73.96
51439;BME280;38816;51.142;-0.974;2023-06-14T09:11:10;100189.94;;;20.31;73.57
51439;BME280;38816;51.142;-0.974;2023-06-14T09:13:36;100184.28;;;20.50;73.12
51439;BME280;38816;51.142;-0.974;2023-06-14T09:16:01;100182.25;;;20.61;72.78
51439;BME280;38816;51.142;-0.974;2023-06-14T09:18:44;100194.03;;;20.77;71.04
51439;BME280;38816;51.142;-0.974;2023-06-14T09:21:11;100187.84;;;20.81;71.66
51439;BME280;38816;51.142;-0.974;2023-06-14T09:23:42;100189.09;;;20.99;70.69
51439;BME280;38816;51.142;-0.974;2023-06-14T09:26:09;100180.88;;;21.13;70.13
51439;BME280;38816;51.142;-0.974;2023-06-14T09:28:35;100190.16;;;21.23;68.75
51439;BME280;38816;51.142;-0.974;2023-06-14T09:31:00;100184.88;;;21.24;68.96
51439;BME280;38816;51.142;-0.974;2023-06-14T09:33:26;100191.56;;;21.36;68.91
51439;BME280;38816;51.142;-0.974;2023-06-14T09:35:54;100183.41;;;21.47;67.50
51439;BME280;38816;51.142;-0.974;2023-06-14T09:38:19;100188.91;;;21.67;66.85
51439;BME280;38816;51.142;-0.974;2023-06-14T09:40:45;100192.81;;;21.82;67.44
51439;BME280;38816;51.142;-0.974;2023-06-14T09:43:11;100192.34;;;21.97;64.92
51439;BME280;38816;51.142;-0.974;2023-06-14T09:45:38;100180.69;;;22.08;64.36
51439;BME280;38816;51.142;-0.974;2023-06-14T09:48:06;100183.69;;;22.23;63.63
51439;BME280;38816;51.142;-0.974;2023-06-14T09:50:32;100184.91;;;22.40;63.78
51439;BME280;38816;51.142;-0.974;2023-06-14T09:53:03;100188.06;;;22.49;62.72
51439;BME280;38816;51.142;-0.974;2023-06-14T09:55:30;100185.13;;;22.59;61.55
51439;BME280;38816;51.142;-0.974;2023-06-14T09:58:00;100190.66;;;22.76;59.36
51439;BME280;38816;51.142;-0.974;2023-06-14T10:00:29;100184.00;;;22.92;58.83
51439;BME280;38816;51.142;-0.974;2023-06-14T10:03:00;100187.91;;;23.06;58.12
51439;BME280;38816;51.142;-0.974;2023-06-14T10:05:29;100181.34;;;23.17;57.87
51439;BME280;38816;51.142;-0.974;2023-06-14T10:08:04;100183.88;;;23.20;58.54
51439;BME280;38816;51.142;-0.974;2023-06-14T10:10:32;100189.38;;;23.36;57.57
51439;BME280;38816;51.142;-0.974;2023-06-14T10:12:58;100195.00;;;23.50;57.52
51439;BME280;38816;51.142;-0.974;2023-06-14T10:15:30;100184.88;;;23.65;56.17
51439;BME280;38816;51.142;-0.974;2023-06-14T10:18:13;100181.31;;;23.66;54.26
51439;BME280;38816;51.142;-0.974;2023-06-14T10:20:55;100175.97;;;23.69;53.43
51439;BME280;38816;51.142;-0.974;2023-06-14T10:23:24;100182.25;;;23.87;53.38
51439;BME280;38816;51.142;-0.974;2023-06-14T10:25:54;100190.38;;;24.03;52.87
51439;BME280;38816;51.142;-0.974;2023-06-14T10:28:21;100185.84;;;24.06;51.60
51439;BME280;38816;51.142;-0.974;2023-06-14T10:33:50;100185.78;;;24.30;51.91
51439;BME280;38816;51.142;-0.974;2023-06-14T10:36:27;100191.28;;;24.45;51.22
51439;BME280;38816;51.142;-0.974;2023-06-14T10:41:34;100185.66;;;24.75;50.02
51439;BME280;38816;51.142;-0.974;2023-06-14T10:46:41;100192.28;;;25.04;47.28
51439;BME280;38816;51.142;-0.974;2023-06-14T10:49:11;100193.00;;;25.08;47.71
51439;BME280;38816;51.142;-0.974;2023-06-14T10:51:41;100185.16;;;25.06;47.63
51439;BME280;38816;51.142;-0.974;2023-06-14T10:54:20;100193.00;;;25.08;47.81
51439;BME280;38816;51.142;-0.974;2023-06-14T10:56:47;100179.13;;;25.04;47.79
51439;BME280;38816;51.142;-0.974;2023-06-14T10:59:13;100175.28;;;25.13;46.54
51439;BME280;38816;51.142;-0.974;2023-06-14T11:02:35;100183.38;;;25.27;47.42
51439;BME280;38816;51.142;-0.974;2023-06-14T11:05:08;100182.75;;;25.41;46.23
51439;BME280;38816;51.142;-0.974;2023-06-14T11:10:50;100194.78;;;25.65;46.89
51439;BME280;38816;51.142;-0.974;2023-06-14T11:13:16;100184.66;;;25.75;47.65
51439;BME280;38816;51.142;-0.974;2023-06-14T11:15:47;100174.03;;;25.78;46.20
51439;BME280;38816;51.142;-0.974;2023-06-14T11:18:13;100169.03;;;25.91;45.65
51439;BME280;38816;51.142;-0.974;2023-06-14T11:20:40;100172.16;;;25.99;45.81
51439;BME280;38816;51.142;-0.974;2023-06-14T11:23:06;100165.88;;;26.01;45.91
51439;BME280;38816;51.142;-0.974;2023-06-14T11:25:31;100171.38;;;26.14;44.78
51439;BME280;38816;51.142;-0.974;2023-06-14T11:27:57;100167.31;;;26.26;44.21
51439;BME280;38816;51.142;-0.974;2023-06-14T11:30:23;100175.25;;;26.43;43.21
51439;BME280;38816;51.142;-0.974;2023-06-14T11:32:50;100166.47;;;26.60;41.94
51439;BME280;38816;51.142;-0.974;2023-06-14T11:35:17;100161.66;;;26.68;41.67
51439;BME280;38816;51.142;-0.974;2023-06-14T11:37:43;100159.63;;;26.73;42.88
51439;BME280;38816;51.142;-0.974;2023-06-14T11:40:10;100154.81;;;26.82;42.57
51439;BME280;38816;51.142;-0.974;2023-06-14T11:42:37;100158.16;;;26.85;40.14
51439;BME280;38816;51.142;-0.974;2023-06-14T11:45:04;100158.63;;;26.93;39.65
51439;BME280;38816;51.142;-0.974;2023-06-14T11:47:32;100164.50;;;26.98;41.91
51439;BME280;38816;51.142;-0.974;2023-06-14T11:49:59;100156.03;;;27.09;42.52
51439;BME280;38816;51.142;-0.974;2023-06-14T11:52:25;100159.97;;;27.18;43.07
51439;BME280;38816;51.142;-0.974;2023-06-14T11:54:50;100143.97;;;27.21;41.81
51439;BME280;38816;51.142;-0.974;2023-06-14T11:57:17;100140.91;;;27.29;40.36
51439;BME280;38816;51.142;-0.974;2023-06-14T11:59:44;100142.81;;;27.42;38.69
51439;BME280;38816;51.142;-0.974;2023-06-14T12:02:14;100147.84;;;27.47;40.20
51439;BME280;38816;51.142;-0.974;2023-06-14T12:04:48;100146.56;;;27.54;40.51
51439;BME280;38816;51.142;-0.974;2023-06-14T12:07:16;100136.69;;;27.58;40.41
51439;BME280;38816;51.142;-0.974;2023-06-14T12:12:37;100138.06;;;27.81;41.81
51439;BME280;38816;51.142;-0.974;2023-06-14T12:15:04;100143.19;;;27.84;41.40
51439;BME280;38816;51.142;-0.974;2023-06-14T12:17:35;100150.16;;;27.85;40.06
51439;BME280;38816;51.142;-0.974;2023-06-14T12:20:12;100142.56;;;27.94;41.29
51439;BME280;38816;51.142;-0.974;2023-06-14T12:22:53;100144.81;;;28.00;38.91
51439;BME280;38816;51.142;-0.974;2023-06-14T12:27:55;100143.13;;;27.99;35.64
51439;BME280;38816;51.142;-0.974;2023-06-14T12:30:21;100130.69;;;28.01;37.23
51439;BME280;38816;51.142;-0.974;2023-06-14T12:32:47;100142.00;;;28.19;40.60
51439;BME280;38816;51.142;-0.974;2023-06-14T12:35:12;100130.88;;;28.29;42.66
51439;BME280;38816;51.142;-0.974;2023-06-14T12:37:37;100135.06;;;28.33;39.33
51439;BME280;38816;51.142;-0.974;2023-06-14T12:40:03;100143.31;;;28.42;39.13
51439;BME280;38816;51.142;-0.974;2023-06-14T12:42:31;100148.63;;;28.57;36.43
51439;BME280;38816;51.142;-0.974;2023-06-14T12:44:56;100131.63;;;28.46;34.85
51439;BME280;38816;51.142;-0.974;2023-06-14T12:47:22;100137.78;;;28.61;36.63
51439;BME280;38816;51.142;-0.974;2023-06-14T12:49:47;100137.31;;;28.69;36.67
51439;BME280;38816;51.142;-0.974;2023-06-14T12:52:12;100143.94;;;28.76;37.08
51439;BME280;38816;51.142;-0.974;2023-06-14T12:54:38;100140.25;;;28.79;35.31
51439;BME280;38816;51.142;-0.974;2023-06-14T12:57:05;100146.78;;;28.87;35.77
51439;BME280;38816;51.142;-0.974;2023-06-14T12:59:31;100145.44;;;28.94;36.57
51439;BME280;38816;51.142;-0.974;2023-06-14T13:02:00;100135.47;;;28.99;34.87